createdAt,value
2017-12-26T00:00:05.675Z,59.01
2017-12-26T00:02:38.253Z,60.05
2017-12-26T00:05:10.739Z,59.98
2017-12-26T00:07:43.232Z,60.13
2017-12-26T00:10:15.732Z,59.83
2017-12-26T00:12:48.233Z,59.71
2017-12-26T00:15:21.695Z,59.85
2017-12-26T00:17:54.183Z,58.93
2017-12-26T00:20:26.699Z,58.19
2017-12-26T00:22:59.227Z,59.68
2017-12-26T00:25:32.425Z,59.05
2017-12-26T00:28:04.924Z,59.74
2017-12-26T00:30:37.413Z,59.54
2017-12-26T00:33:09.917Z,58.89
2017-12-26T00:35:42.392Z,58.73
2017-12-26T00:38:14.903Z,59.49
2017-12-26T00:40:47.387Z,59.59
2017-12-26T00:43:19.900Z,58.31
2017-12-26T00:45:52.800Z,59.52
2017-12-26T00:48:25.315Z,59.51
2017-12-26T00:50:58.727Z,58.76
2017-12-26T00:53:31.224Z,60.70
2017-12-26T00:56:04.783Z,60.18
2017-12-26T00:58:37.270Z,59.84
2017-12-26T01:01:09.774Z,59.74
2017-12-26T01:03:42.254Z,60.68
2017-12-26T01:06:14.746Z,60.87
2017-12-26T01:08:47.226Z,60.01
2017-12-26T01:11:19.718Z,61.02
2017-12-26T01:13:52.249Z,59.63
2017-12-26T01:16:24.748Z,60.15
2017-12-26T01:18:57.239Z,59.39
2017-12-26T01:21:29.731Z,59.29
2017-12-26T01:24:02.224Z,59.60
2017-12-26T01:26:34.730Z,60.22
2017-12-26T01:29:07.208Z,60.64
2017-12-26T01:31:39.725Z,60.87
2017-12-26T01:34:12.212Z,60.69
2017-12-26T01:36:44.717Z,60.25
2017-12-26T01:39:17.195Z,59.95
2017-12-26T01:41:49.722Z,60.27
2017-12-26T01:44:22.199Z,60.20
2017-12-26T01:46:54.702Z,59.79
2017-12-26T01:49:27.182Z,59.91
2017-12-26T01:51:59.680Z,60.15
2017-12-26T01:54:32.365Z,60.10
2017-12-26T01:57:04.862Z,60.62
2017-12-26T01:59:37.346Z,60.78
2017-12-26T02:02:09.869Z,60.20
2017-12-26T02:04:42.368Z,60.36
2017-12-26T02:07:14.890Z,60.24
2017-12-26T02:09:47.386Z,59.49
2017-12-26T02:12:19.900Z,59.33
2017-12-26T02:14:52.380Z,59.45
2017-12-26T02:17:24.896Z,59.37
2017-12-26T02:19:57.422Z,59.72
2017-12-26T02:22:30.617Z,59.17
2017-12-26T02:25:03.104Z,60.48
2017-12-26T02:27:35.665Z,60.18
2017-12-26T02:30:08.161Z,60.16
2017-12-26T02:32:40.673Z,60.92
2017-12-26T02:35:13.157Z,61.22
2017-12-26T02:37:45.698Z,60.88
2017-12-26T02:40:18.196Z,60.25
2017-12-26T02:42:50.701Z,60.04
2017-12-26T02:45:23.207Z,60.12
2017-12-26T02:47:55.718Z,60.11
2017-12-26T02:50:28.211Z,60.24
2017-12-26T02:53:00.730Z,60.31
2017-12-26T02:55:33.213Z,60.36
2017-12-26T02:58:05.711Z,61.18
2017-12-26T03:00:38.183Z,60.63
2017-12-26T03:03:10.684Z,60.80
2017-12-26T03:05:43.173Z,60.33
2017-12-26T03:08:15.683Z,61.16
2017-12-26T03:10:48.172Z,60.95
2017-12-26T03:13:20.668Z,61.13
2017-12-26T03:15:53.164Z,61.57
2017-12-26T03:18:25.672Z,60.99
2017-12-26T03:20:58.176Z,60.32
2017-12-26T03:23:30.680Z,60.85
2017-12-26T03:26:03.169Z,60.94
2017-12-26T03:28:35.684Z,60.62
2017-12-26T03:31:08.178Z,61.06
2017-12-26T03:33:40.692Z,60.17
2017-12-26T03:36:13.360Z,60.78
2017-12-26T03:38:45.868Z,60.43
2017-12-26T03:41:18.354Z,61.02
2017-12-26T03:43:50.864Z,61.41
2017-12-26T03:46:23.352Z,61.77
2017-12-26T03:48:55.879Z,61.90
2017-12-26T03:51:28.372Z,61.16
2017-12-26T03:54:00.896Z,62.01
2017-12-26T03:56:33.396Z,61.57
2017-12-26T03:59:05.912Z,61.58
2017-12-26T04:01:38.408Z,61.51
2017-12-26T04:04:10.926Z,62.89
2017-12-26T04:06:43.422Z,62.38
2017-12-26T04:09:15.933Z,62.56
2017-12-26T04:11:48.419Z,63.59
2017-12-26T04:14:20.935Z,62.97
2017-12-26T04:16:53.436Z,62.47
2017-12-26T04:19:25.943Z,62.53
2017-12-26T04:21:58.439Z,62.28
2017-12-26T04:24:30.954Z,62.83
2017-12-26T04:27:03.454Z,62.37
2017-12-26T04:29:35.981Z,62.31
2017-12-26T04:32:08.527Z,62.52
2017-12-26T04:34:41.032Z,63.66
2017-12-26T04:37:13.541Z,62.63
2017-12-26T04:39:46.055Z,62.43
2017-12-26T04:42:18.575Z,62.30
2017-12-26T04:44:51.072Z,62.63
2017-12-26T04:47:23.595Z,63.54
2017-12-26T04:49:56.081Z,62.82
2017-12-26T04:52:28.591Z,63.22
2017-12-26T04:55:01.622Z,62.66
2017-12-26T04:57:34.209Z,62.34
2017-12-26T05:00:06.710Z,62.26
2017-12-26T05:02:39.207Z,62.31
2017-12-26T05:05:11.699Z,61.50
2017-12-26T05:07:44.211Z,62.75
2017-12-26T05:10:16.770Z,62.25
2017-12-26T05:12:49.289Z,61.87
2017-12-26T05:15:21.781Z,62.49
2017-12-26T05:17:54.348Z,62.39
2017-12-26T05:20:26.835Z,62.74
2017-12-26T05:22:59.357Z,62.58
2017-12-26T05:25:31.999Z,62.88
2017-12-26T05:28:04.508Z,63.71
2017-12-26T05:30:37.024Z,63.38
2017-12-26T05:33:09.537Z,62.95
2017-12-26T05:35:42.024Z,63.61
2017-12-26T05:38:14.529Z,63.76
2017-12-26T05:40:47.024Z,63.55
2017-12-26T05:43:19.534Z,63.34
2017-12-26T05:45:52.024Z,63.08
2017-12-26T05:48:24.525Z,62.57
2017-12-26T05:50:57.034Z,62.42
2017-12-26T05:53:31.184Z,62.80
2017-12-26T05:56:03.672Z,63.07
2017-12-26T05:58:36.197Z,63.01
2017-12-26T06:01:08.682Z,62.94
2017-12-26T06:03:41.188Z,63.21
2017-12-26T06:06:13.694Z,63.17
2017-12-26T06:08:46.198Z,63.20
2017-12-26T06:11:18.688Z,63.63
2017-12-26T06:13:51.208Z,63.55
2017-12-26T06:16:23.696Z,62.96
2017-12-26T06:18:56.201Z,63.94
2017-12-26T06:21:28.693Z,64.60
2017-12-26T06:24:02.039Z,64.38
2017-12-26T06:26:34.533Z,64.35
2017-12-26T06:29:07.051Z,64.09
2017-12-26T06:31:39.565Z,63.26
2017-12-26T06:34:12.077Z,62.80
2017-12-26T06:36:44.563Z,62.79
2017-12-26T06:39:17.073Z,63.55
2017-12-26T06:41:49.556Z,63.67
2017-12-26T06:44:22.067Z,63.26
2017-12-26T06:46:54.554Z,62.99
2017-12-26T06:49:27.083Z,62.54
2017-12-26T06:52:01.215Z,63.67
2017-12-26T06:54:33.735Z,63.44
2017-12-26T06:57:06.232Z,63.13
2017-12-26T06:59:38.736Z,63.06
2017-12-26T07:02:11.237Z,62.79
2017-12-26T07:04:43.739Z,63.06
2017-12-26T07:07:16.234Z,63.19
2017-12-26T07:09:48.736Z,63.03
2017-12-26T07:12:21.230Z,63.11
2017-12-26T07:14:53.756Z,63.00
2017-12-26T07:17:26.249Z,63.22
2017-12-26T07:19:58.785Z,62.41
2017-12-26T07:22:32.077Z,63.47
2017-12-26T07:25:04.587Z,63.44
2017-12-26T07:27:37.081Z,63.71
2017-12-26T07:30:09.589Z,63.89
2017-12-26T07:32:42.087Z,64.10
2017-12-26T07:35:14.590Z,63.38
2017-12-26T07:37:47.081Z,63.18
2017-12-26T07:40:19.600Z,63.45
2017-12-26T07:42:52.096Z,62.99
2017-12-26T07:45:24.616Z,62.69
2017-12-26T07:47:57.124Z,62.86
2017-12-26T07:50:29.876Z,62.89
2017-12-26T07:53:02.849Z,62.97
2017-12-26T07:55:35.453Z,63.00
2017-12-26T07:58:07.937Z,64.21
2017-12-26T08:00:40.443Z,63.84
2017-12-26T08:03:12.966Z,63.71
2017-12-26T08:05:45.457Z,63.57
2017-12-26T08:08:17.990Z,62.69
2017-12-26T08:10:50.471Z,62.83
2017-12-26T08:13:22.977Z,62.70
2017-12-26T08:15:55.458Z,64.14
2017-12-26T08:18:27.963Z,63.06
2017-12-26T08:21:00.945Z,62.72
2017-12-26T08:23:33.461Z,63.07
2017-12-26T08:26:05.939Z,62.26
2017-12-26T08:28:38.484Z,62.57
2017-12-26T08:31:11.019Z,62.51
2017-12-26T08:33:43.621Z,61.76
2017-12-26T08:36:16.120Z,61.98
2017-12-26T08:38:48.625Z,61.76
2017-12-26T08:41:21.117Z,62.00
2017-12-26T08:43:53.619Z,61.55
2017-12-26T08:46:26.108Z,61.54
2017-12-26T08:48:58.619Z,61.50
2017-12-26T08:51:41.671Z,61.51
2017-12-26T08:54:14.277Z,61.37
2017-12-26T08:56:46.907Z,61.77
2017-12-26T08:59:19.493Z,61.75
2017-12-26T09:01:52.004Z,62.17
2017-12-26T09:04:24.508Z,61.44
2017-12-26T09:06:56.984Z,62.14
2017-12-26T09:09:30.296Z,61.93
2017-12-26T09:12:02.797Z,61.57
2017-12-26T09:14:35.312Z,60.44
2017-12-26T09:17:07.792Z,61.65
2017-12-26T09:19:41.124Z,60.79
2017-12-26T09:22:13.616Z,61.04
2017-12-26T09:24:46.126Z,60.80
2017-12-26T09:27:18.640Z,61.03
2017-12-26T09:29:51.146Z,60.48
2017-12-26T09:32:23.634Z,60.27
2017-12-26T09:34:56.161Z,61.00
2017-12-26T09:37:28.659Z,60.79
2017-12-26T09:40:01.615Z,59.84
2017-12-26T09:42:34.101Z,60.94
2017-12-26T09:45:06.621Z,60.58
2017-12-26T09:47:39.174Z,60.76
2017-12-26T09:50:11.686Z,62.27
2017-12-26T09:52:44.171Z,62.36
2017-12-26T09:55:16.707Z,62.18
2017-12-26T09:57:49.210Z,62.52
2017-12-26T10:00:21.724Z,62.49
2017-12-26T10:02:54.232Z,62.68
2017-12-26T10:05:26.734Z,63.38
2017-12-26T10:07:59.217Z,63.18
2017-12-26T10:10:32.560Z,63.00
2017-12-26T10:13:05.036Z,63.93
2017-12-26T10:15:37.537Z,63.22
2017-12-26T10:18:10.021Z,64.05
2017-12-26T10:20:42.527Z,64.20
2017-12-26T10:23:15.021Z,65.10
2017-12-26T10:25:47.538Z,64.22
2017-12-26T10:28:20.025Z,65.75
2017-12-26T10:30:52.554Z,64.68
2017-12-26T10:33:25.053Z,65.77
2017-12-26T10:35:57.584Z,65.90
2017-12-26T10:38:30.661Z,65.41
2017-12-26T10:41:03.240Z,65.22
2017-12-26T10:43:35.718Z,66.93
2017-12-26T10:46:08.227Z,66.88
2017-12-26T10:48:40.709Z,66.43
2017-12-26T10:51:13.298Z,67.83
2017-12-26T10:53:45.796Z,67.55
2017-12-26T10:56:18.308Z,66.38
2017-12-26T10:58:50.798Z,66.18
2017-12-26T11:01:23.302Z,66.42
2017-12-26T11:03:55.788Z,68.51
2017-12-26T11:06:28.302Z,67.34
2017-12-26T11:09:01.152Z,66.98
2017-12-26T11:11:33.660Z,66.94
2017-12-26T11:14:06.224Z,66.59
2017-12-26T11:16:38.748Z,67.11
2017-12-26T11:19:11.254Z,66.82
2017-12-26T11:21:43.728Z,66.03
2017-12-26T11:24:16.228Z,65.96
2017-12-26T11:26:57.591Z,66.21
2017-12-26T11:29:30.711Z,65.98
2017-12-26T11:32:03.244Z,66.29
2017-12-26T11:34:35.774Z,66.06
2017-12-26T11:37:08.258Z,65.64
2017-12-26T11:39:40.760Z,65.87
2017-12-26T11:42:13.274Z,65.43
2017-12-26T11:44:45.788Z,65.68
2017-12-26T11:47:18.287Z,65.55
2017-12-26T11:49:50.806Z,64.50
2017-12-26T11:52:23.304Z,63.61
2017-12-26T11:54:55.825Z,65.52
2017-12-26T11:57:28.317Z,64.63
2017-12-26T12:00:01.304Z,64.16
2017-12-26T12:02:33.796Z,65.01
2017-12-26T12:05:06.310Z,64.32
2017-12-26T12:07:38.792Z,64.56
2017-12-26T12:10:11.321Z,65.25
2017-12-26T12:12:43.805Z,65.60
2017-12-26T12:15:16.340Z,64.68
2017-12-26T12:17:48.837Z,64.53
2017-12-26T12:20:21.360Z,64.27
2017-12-26T12:22:53.858Z,64.83
2017-12-26T12:25:26.374Z,64.05
2017-12-26T12:27:58.874Z,64.77
2017-12-26T12:30:32.208Z,64.55
2017-12-26T12:33:04.704Z,63.47
2017-12-26T12:35:37.297Z,63.68
2017-12-26T12:38:09.788Z,63.21
2017-12-26T12:40:42.303Z,63.26
2017-12-26T12:43:14.796Z,62.64
2017-12-26T12:45:47.319Z,62.57
2017-12-26T12:48:19.808Z,62.12
2017-12-26T12:50:52.321Z,62.67
2017-12-26T12:53:24.796Z,62.05
2017-12-26T12:55:57.308Z,62.31
2017-12-26T12:58:30.053Z,61.79
2017-12-26T13:01:02.587Z,61.70
2017-12-26T13:03:35.077Z,60.94
2017-12-26T13:06:07.584Z,61.36
2017-12-26T13:08:40.056Z,61.18
2017-12-26T13:11:12.637Z,59.70
2017-12-26T13:13:45.127Z,61.69
2017-12-26T13:16:17.633Z,61.86
2017-12-26T13:18:50.139Z,62.21
2017-12-26T13:21:22.659Z,61.36
2017-12-26T13:23:55.144Z,61.39
2017-12-26T13:26:27.662Z,60.32
2017-12-26T13:29:00.146Z,59.93
2017-12-26T13:31:32.656Z,61.08
2017-12-26T13:34:05.132Z,60.85
2017-12-26T13:36:39.015Z,60.90
2017-12-26T13:39:11.488Z,60.68
2017-12-26T13:41:43.979Z,60.15
2017-12-26T13:44:16.485Z,58.50
2017-12-26T13:46:48.979Z,59.56
2017-12-26T13:49:21.486Z,60.09
2017-12-26T13:51:53.989Z,59.87
2017-12-26T13:54:26.464Z,58.91
2017-12-26T13:56:58.965Z,59.13
2017-12-26T13:59:32.058Z,59.38
2017-12-26T14:02:04.554Z,58.76
2017-12-26T14:04:37.040Z,58.89
2017-12-26T14:07:09.532Z,57.76
2017-12-26T14:09:42.005Z,58.85
2017-12-26T14:12:14.500Z,58.34
2017-12-26T14:14:46.976Z,59.11
2017-12-26T14:17:19.481Z,58.43
2017-12-26T14:19:51.965Z,58.26
2017-12-26T14:22:24.470Z,57.70
2017-12-26T14:24:56.952Z,58.31
2017-12-26T14:27:29.448Z,58.74
2017-12-26T14:30:02.673Z,58.23
2017-12-26T14:32:36.002Z,58.92
2017-12-26T14:35:08.525Z,59.53
2017-12-26T14:37:41.014Z,58.68
2017-12-26T14:40:13.554Z,58.78
2017-12-26T14:42:46.029Z,58.99
2017-12-26T14:45:18.532Z,58.55
2017-12-26T14:47:51.006Z,58.33
2017-12-26T14:50:23.513Z,58.24
2017-12-26T14:52:55.989Z,58.79
2017-12-26T14:55:28.481Z,58.35
2017-12-26T14:58:00.967Z,58.28
2017-12-26T15:00:33.467Z,59.07
2017-12-26T15:03:05.943Z,58.63
2017-12-26T15:05:38.440Z,58.67
2017-12-26T15:08:11.884Z,58.63
2017-12-26T15:10:44.379Z,58.76
2017-12-26T15:13:16.851Z,58.08
2017-12-26T15:15:49.348Z,58.45
2017-12-26T15:18:21.818Z,57.74
2017-12-26T15:20:54.364Z,58.23
2017-12-26T15:23:26.843Z,58.02
2017-12-26T15:25:59.368Z,56.70
2017-12-26T15:28:31.860Z,57.31
2017-12-26T15:31:04.355Z,57.56
2017-12-26T15:33:36.832Z,57.54
2017-12-26T15:36:09.344Z,56.93
2017-12-26T15:38:41.819Z,58.55
2017-12-26T15:41:14.313Z,57.91
2017-12-26T15:43:46.791Z,57.81
2017-12-26T15:46:19.313Z,57.52
2017-12-26T15:48:51.792Z,56.86
2017-12-26T15:51:24.296Z,56.35
2017-12-26T15:53:56.819Z,57.39
2017-12-26T15:56:29.322Z,57.93
2017-12-26T15:59:01.799Z,56.22
2017-12-26T16:01:34.312Z,56.48
2017-12-26T16:04:06.787Z,56.93
2017-12-26T16:06:39.287Z,55.87
2017-12-26T16:09:11.766Z,56.03
2017-12-26T16:11:44.272Z,57.23
2017-12-26T16:14:16.755Z,56.95
2017-12-26T16:16:49.262Z,57.10
2017-12-26T16:19:21.749Z,57.01
2017-12-26T16:21:54.244Z,57.21
2017-12-26T16:24:26.718Z,57.52
2017-12-26T16:26:59.218Z,56.83
2017-12-26T16:29:31.682Z,57.32
2017-12-26T16:32:04.179Z,57.50
2017-12-26T16:34:36.665Z,57.39
2017-12-26T16:37:09.268Z,57.78
2017-12-26T16:39:41.752Z,57.12
2017-12-26T16:42:14.253Z,57.55
2017-12-26T16:44:46.748Z,57.53
2017-12-26T16:47:19.250Z,57.76
2017-12-26T16:49:52.835Z,57.60
2017-12-26T16:52:25.328Z,57.30
2017-12-26T16:54:57.825Z,57.67
2017-12-26T16:57:30.329Z,57.53
2017-12-26T17:00:02.812Z,57.88
2017-12-26T17:02:35.350Z,58.02
2017-12-26T17:05:07.821Z,57.98
2017-12-26T17:07:40.321Z,57.03
2017-12-26T17:10:12.795Z,57.02
2017-12-26T17:12:45.284Z,57.00
2017-12-26T17:15:17.760Z,56.73
2017-12-26T17:17:50.263Z,56.79
2017-12-26T17:20:22.740Z,57.80
2017-12-26T17:22:55.234Z,58.20
2017-12-26T17:25:27.711Z,56.77
2017-12-26T17:28:00.243Z,58.09
2017-12-26T17:30:32.730Z,59.25
2017-12-26T17:33:05.228Z,57.64
2017-12-26T17:35:37.699Z,57.30
2017-12-26T17:38:10.637Z,55.99
2017-12-26T17:40:43.108Z,56.18
2017-12-26T17:43:15.638Z,56.41
2017-12-26T17:45:48.116Z,56.51
2017-12-26T17:48:20.615Z,56.05
2017-12-26T17:50:53.103Z,55.75
2017-12-26T17:53:25.606Z,56.45
2017-12-26T17:55:58.101Z,56.26
2017-12-26T17:58:30.577Z,56.27
2017-12-26T18:01:03.101Z,56.16
2017-12-26T18:03:35.592Z,56.49
2017-12-26T18:06:08.097Z,56.33
2017-12-26T18:08:41.239Z,57.06
2017-12-26T18:11:13.736Z,57.22
2017-12-26T18:13:46.230Z,57.22
2017-12-26T18:16:18.880Z,57.14
2017-12-26T18:18:51.362Z,56.74
2017-12-26T18:21:24.568Z,56.87
2017-12-26T18:23:57.056Z,57.07
2017-12-26T18:26:29.557Z,57.96
2017-12-26T18:29:02.026Z,57.29
2017-12-26T18:31:34.525Z,58.19
2017-12-26T18:34:07.031Z,59.77
2017-12-26T18:36:40.182Z,59.08
2017-12-26T18:39:12.671Z,59.22
2017-12-26T18:41:45.165Z,59.24
2017-12-26T18:44:17.637Z,58.92
2017-12-26T18:46:50.163Z,58.62
2017-12-26T18:49:22.641Z,59.04
2017-12-26T18:51:55.154Z,58.42
2017-12-26T18:54:27.629Z,58.12
2017-12-26T18:57:00.128Z,58.11
2017-12-26T18:59:32.609Z,59.00
2017-12-26T19:02:05.104Z,59.45
2017-12-26T19:04:37.588Z,59.68
2017-12-26T19:07:10.595Z,59.68
2017-12-26T19:09:43.081Z,59.80
2017-12-26T19:12:15.570Z,59.49
2017-12-26T19:14:48.044Z,59.82
2017-12-26T19:17:20.569Z,59.97
2017-12-26T19:19:53.048Z,59.51
2017-12-26T19:22:25.551Z,59.67
2017-12-26T19:24:58.017Z,59.24
2017-12-26T19:27:30.517Z,59.46
2017-12-26T19:30:02.992Z,59.72
2017-12-26T19:32:35.514Z,59.53
2017-12-26T19:35:08.000Z,59.64
2017-12-26T19:37:40.500Z,59.56
2017-12-26T19:40:12.967Z,59.54
2017-12-26T19:42:45.451Z,59.92
2017-12-26T19:45:17.923Z,59.75
2017-12-26T19:47:50.419Z,60.57
2017-12-26T19:50:22.890Z,60.06
2017-12-26T19:52:55.396Z,60.61
2017-12-26T19:55:27.880Z,60.17
2017-12-26T19:58:00.415Z,60.27
2017-12-26T20:00:32.890Z,59.79
2017-12-26T20:03:07.474Z,60.09
2017-12-26T20:05:40.258Z,60.45
2017-12-26T20:08:12.757Z,59.64
2017-12-26T20:10:45.248Z,60.11
2017-12-26T20:13:17.750Z,60.45
2017-12-26T20:15:50.227Z,60.83
2017-12-26T20:18:22.719Z,60.28
2017-12-26T20:20:55.208Z,61.04
2017-12-26T20:23:27.708Z,60.54
2017-12-26T20:26:02.192Z,60.49
2017-12-26T20:28:40.226Z,60.60
2017-12-26T20:31:12.711Z,60.71
2017-12-26T20:33:45.228Z,60.34
2017-12-26T20:36:17.718Z,60.01
2017-12-26T20:38:50.227Z,60.13
2017-12-26T20:41:22.717Z,60.30
2017-12-26T20:43:55.205Z,60.37
2017-12-26T20:46:27.684Z,60.38
2017-12-26T20:49:00.193Z,59.99
2017-12-26T20:51:32.663Z,60.35
2017-12-26T20:54:05.162Z,60.23
2017-12-26T20:56:37.652Z,60.22
2017-12-26T20:59:10.698Z,60.39
2017-12-26T21:01:43.178Z,60.36
2017-12-26T21:04:15.680Z,60.15
2017-12-26T21:06:48.156Z,60.22
2017-12-26T21:09:20.658Z,60.25
2017-12-26T21:11:53.136Z,60.32
2017-12-26T21:14:25.635Z,60.88
2017-12-26T21:16:58.128Z,61.15
2017-12-26T21:19:30.634Z,61.15
2017-12-26T21:22:03.116Z,61.02
2017-12-26T21:24:35.608Z,60.88
2017-12-26T21:27:08.084Z,60.36
2017-12-26T21:29:40.595Z,61.16
2017-12-26T21:32:13.098Z,61.12
2017-12-26T21:34:45.598Z,60.84
2017-12-26T21:37:18.124Z,60.49
2017-12-26T21:39:50.623Z,60.92
2017-12-26T21:42:23.122Z,61.03
2017-12-26T21:44:55.597Z,61.15
2017-12-26T21:47:28.082Z,61.27
2017-12-26T21:50:00.566Z,60.72
2017-12-26T21:52:33.071Z,60.55
2017-12-26T21:55:05.545Z,60.72
2017-12-26T21:57:38.056Z,60.40
2017-12-26T22:00:10.536Z,60.36
2017-12-26T22:02:43.039Z,60.08
2017-12-26T22:05:15.517Z,59.93
2017-12-26T22:07:48.014Z,59.77
2017-12-26T22:10:20.500Z,59.56
2017-12-26T22:12:52.987Z,60.14
2017-12-26T22:15:25.467Z,59.95
2017-12-26T22:17:57.981Z,59.85
2017-12-26T22:20:30.475Z,59.69
2017-12-26T22:23:02.981Z,59.85
2017-12-26T22:25:35.462Z,60.07
2017-12-26T22:28:07.950Z,59.62
2017-12-26T22:30:40.426Z,60.04
2017-12-26T22:33:12.925Z,60.25
2017-12-26T22:35:45.397Z,60.31
2017-12-26T22:38:17.900Z,60.25
2017-12-26T22:40:50.380Z,60.39
2017-12-26T22:43:22.881Z,60.73
2017-12-26T22:45:55.354Z,60.38
2017-12-26T22:48:27.847Z,60.55
2017-12-26T22:51:00.367Z,60.73
2017-12-26T22:53:32.855Z,60.92
2017-12-26T22:56:05.363Z,60.47
2017-12-26T22:58:37.859Z,60.37
2017-12-26T23:01:10.799Z,60.60
2017-12-26T23:03:43.318Z,60.85
2017-12-26T23:06:15.796Z,60.74
2017-12-26T23:08:48.295Z,60.80
2017-12-26T23:11:20.784Z,60.71
2017-12-26T23:17:07.489Z,60.94
2017-12-26T23:19:45.638Z,60.29
2017-12-26T23:22:18.112Z,61.24
2017-12-26T23:24:56.138Z,61.26
2017-12-26T23:27:34.264Z,61.22
2017-12-26T23:30:12.378Z,61.39
2017-12-26T23:32:50.613Z,61.41
2017-12-26T23:35:28.688Z,60.84
2017-12-26T23:38:06.775Z,60.92
2017-12-26T23:40:44.921Z,61.15
2017-12-26T23:43:23.114Z,61.64
2017-12-26T23:49:08.912Z,61.96
2017-12-26T23:51:48.423Z,61.62
2017-12-26T23:54:26.397Z,61.67
2017-12-26T23:57:04.407Z,61.86
2017-12-26T23:59:42.459Z,61.99
